createdAt,value
2017-02-24T00:00:36.766Z,0
2017-02-24T00:01:17.343Z,0
2017-02-24T00:01:58.007Z,0
2017-02-24T00:02:38.653Z,0
2017-02-24T00:03:19.263Z,0
2017-02-24T00:03:59.856Z,0
2017-02-24T00:04:40.470Z,0
2017-02-24T00:05:21.090Z,0
2017-02-24T00:06:01.700Z,0
2017-02-24T00:06:42.283Z,0
2017-02-24T00:07:22.902Z,0
2017-02-24T00:08:03.484Z,0
2017-02-24T00:08:44.117Z,0
2017-02-24T00:09:24.689Z,0
2017-02-24T00:10:05.277Z,0
2017-02-24T00:10:45.883Z,0
2017-02-24T00:11:26.515Z,0
2017-02-24T00:12:07.150Z,0
2017-02-24T00:12:47.788Z,0
2017-02-24T00:13:28.364Z,0
2017-02-24T00:14:08.997Z,0
2017-02-24T00:14:49.575Z,0
2017-02-24T00:15:30.147Z,0
2017-02-24T00:16:10.730Z,0
2017-02-24T00:16:51.331Z,0
2017-02-24T00:17:31.922Z,0
2017-02-24T00:18:12.474Z,0
2017-02-24T00:18:53.060Z,0
2017-02-24T00:19:33.659Z,0
2017-02-24T00:20:14.292Z,0
2017-02-24T00:20:54.867Z,0
2017-02-24T00:21:35.451Z,0
2017-02-24T00:22:16.040Z,0
2017-02-24T00:22:56.638Z,0
2017-02-24T00:23:37.238Z,0
2017-02-24T00:24:17.846Z,0
2017-02-24T00:24:58.431Z,0
2017-02-24T00:25:39.000Z,0
2017-02-24T00:26:19.578Z,0
2017-02-24T00:27:00.157Z,0
2017-02-24T00:27:40.783Z,0
2017-02-24T00:28:21.351Z,0
2017-02-24T00:29:01.960Z,0
2017-02-24T00:29:42.554Z,0
2017-02-24T00:30:23.163Z,0
2017-02-24T00:31:03.761Z,0
2017-02-24T00:31:44.360Z,0
2017-02-24T00:32:24.952Z,0
2017-02-24T00:33:05.581Z,0
2017-02-24T00:33:46.177Z,0
2017-02-24T00:34:26.785Z,0
2017-02-24T00:35:07.387Z,0
2017-02-24T00:35:47.956Z,0
2017-02-24T00:36:28.527Z,0
2017-02-24T00:37:09.089Z,0
2017-02-24T00:37:49.735Z,0
2017-02-24T00:38:30.345Z,0
2017-02-24T00:39:10.964Z,0
2017-02-24T00:39:51.563Z,0
2017-02-24T00:40:32.147Z,0
2017-02-24T00:41:12.721Z,0
2017-02-24T00:41:53.295Z,0
2017-02-24T00:42:33.866Z,0
2017-02-24T00:43:14.460Z,0
2017-02-24T00:43:55.000Z,0
2017-02-24T00:44:35.584Z,0
2017-02-24T00:45:16.160Z,0
2017-02-24T00:45:56.736Z,0
2017-02-24T00:46:37.315Z,0
2017-02-24T00:47:17.884Z,0
2017-02-24T00:47:58.494Z,0
2017-02-24T00:48:39.073Z,0
2017-02-24T00:49:19.655Z,0
2017-02-24T00:50:00.246Z,0
2017-02-24T00:50:40.822Z,0
2017-02-24T00:51:21.411Z,0
2017-02-24T00:52:02.077Z,0
2017-02-24T00:52:42.672Z,0
2017-02-24T00:53:23.260Z,0
2017-02-24T00:54:03.820Z,0
2017-02-24T00:54:44.407Z,0
2017-02-24T00:55:24.992Z,0
2017-02-24T00:56:05.573Z,0
2017-02-24T00:56:46.145Z,0
2017-02-24T00:57:26.709Z,0
2017-02-24T00:58:07.293Z,0
2017-02-24T00:58:47.904Z,0
2017-02-24T00:59:28.488Z,0
2017-02-24T01:00:09.084Z,0
2017-02-24T01:00:49.662Z,0
2017-02-24T01:01:30.253Z,0
2017-02-24T01:02:10.876Z,0
2017-02-24T01:02:51.447Z,0
2017-02-24T01:03:32.025Z,0
2017-02-24T01:04:12.630Z,0
2017-02-24T01:04:53.199Z,0
2017-02-24T01:05:33.772Z,0
2017-02-24T01:06:14.413Z,0
2017-02-24T01:06:55.032Z,0
2017-02-24T01:07:35.607Z,0
2017-02-24T01:08:16.192Z,0
2017-02-24T01:08:56.771Z,0
2017-02-24T01:09:37.345Z,0
2017-02-24T01:10:17.947Z,0
2017-02-24T01:10:58.537Z,0
2017-02-24T01:11:39.125Z,0
2017-02-24T01:12:19.716Z,0
2017-02-24T01:13:00.322Z,0
2017-02-24T01:13:40.884Z,0
2017-02-24T01:14:21.449Z,0
2017-02-24T01:15:02.010Z,0
2017-02-24T01:15:42.571Z,0
2017-02-24T01:16:23.145Z,0
2017-02-24T01:17:03.726Z,0
2017-02-24T01:17:44.309Z,0
2017-02-24T01:18:24.884Z,0
2017-02-24T01:19:05.454Z,0
2017-02-24T01:19:46.020Z,0
2017-02-24T01:20:26.599Z,0
2017-02-24T01:21:07.170Z,0
2017-02-24T01:21:47.755Z,0
2017-02-24T01:22:28.358Z,0
2017-02-24T01:23:08.923Z,0
2017-02-24T01:23:49.559Z,0
2017-02-24T01:24:30.140Z,0
2017-02-24T01:25:10.714Z,0
2017-02-24T01:25:51.295Z,0
2017-02-24T01:26:31.877Z,0
2017-02-24T01:27:12.453Z,0
2017-02-24T01:27:53.055Z,0
2017-02-24T01:28:33.631Z,0
2017-02-24T01:29:14.203Z,0
2017-02-24T01:29:54.796Z,0
2017-02-24T01:30:35.383Z,0
2017-02-24T01:31:15.956Z,0
2017-02-24T01:31:56.516Z,0
2017-02-24T01:32:37.160Z,0
2017-02-24T01:33:17.793Z,0
2017-02-24T01:33:58.364Z,0
2017-02-24T01:34:38.939Z,0
2017-02-24T01:35:19.523Z,0
2017-02-24T01:36:00.087Z,0
2017-02-24T01:36:40.670Z,0
2017-02-24T01:37:21.266Z,0
2017-02-24T01:38:01.834Z,0
2017-02-24T01:38:42.406Z,0
2017-02-24T01:39:23.005Z,0
2017-02-24T01:40:03.583Z,0
2017-02-24T01:40:44.165Z,0
2017-02-24T01:41:24.745Z,0
2017-02-24T01:42:05.358Z,0
2017-02-24T01:42:45.918Z,0
2017-02-24T01:43:26.509Z,0
2017-02-24T01:44:07.094Z,0
2017-02-24T01:44:47.700Z,0
2017-02-24T01:45:28.276Z,0
2017-02-24T01:46:08.863Z,0
2017-02-24T01:46:49.439Z,0
2017-02-24T01:47:30.000Z,0
2017-02-24T01:48:10.562Z,0
2017-02-24T01:48:51.166Z,0
2017-02-24T01:49:31.751Z,0
2017-02-24T01:50:12.330Z,0
2017-02-24T01:50:52.923Z,0
2017-02-24T01:51:33.506Z,0
2017-02-24T01:52:14.117Z,0
2017-02-24T01:52:54.689Z,0
2017-02-24T01:53:35.252Z,0
2017-02-24T01:54:15.839Z,0
2017-02-24T01:54:56.408Z,0
2017-02-24T01:55:36.982Z,0
2017-02-24T01:56:17.567Z,0
2017-02-24T01:56:58.187Z,0
2017-02-24T01:57:38.767Z,0
2017-02-24T01:58:19.340Z,0
2017-02-24T01:58:59.913Z,0
2017-02-24T01:59:40.480Z,0
2017-02-24T02:00:21.074Z,0
2017-02-24T02:01:01.642Z,0
2017-02-24T02:01:42.221Z,0
2017-02-24T02:02:22.807Z,0
2017-02-24T02:03:03.372Z,0
2017-02-24T02:03:43.963Z,0
2017-02-24T02:04:24.502Z,0
2017-02-24T02:05:05.070Z,0
2017-02-24T02:05:45.640Z,0
2017-02-24T02:06:26.223Z,0
2017-02-24T02:07:06.825Z,0
2017-02-24T02:07:47.411Z,0
2017-02-24T02:08:27.977Z,0
2017-02-24T02:09:08.570Z,0
2017-02-24T02:09:49.169Z,0
2017-02-24T02:10:29.744Z,0
2017-02-24T02:11:10.354Z,0
2017-02-24T02:11:50.922Z,0
2017-02-24T02:12:31.500Z,0
2017-02-24T02:13:12.065Z,0
2017-02-24T02:13:53.134Z,0
2017-02-24T02:14:33.715Z,0
2017-02-24T02:15:14.315Z,0
2017-02-24T02:15:54.887Z,0
2017-02-24T02:16:35.449Z,0
2017-02-24T02:17:16.005Z,0
2017-02-24T02:17:56.595Z,0
2017-02-24T02:18:37.166Z,0
2017-02-24T02:19:17.743Z,0
2017-02-24T02:19:58.355Z,0
2017-02-24T02:20:38.961Z,0
2017-02-24T02:21:19.539Z,0
2017-02-24T02:22:00.104Z,0
2017-02-24T02:22:40.681Z,0
2017-02-24T02:23:21.291Z,0
2017-02-24T02:24:01.864Z,0
2017-02-24T02:24:42.446Z,0
2017-02-24T02:25:23.060Z,0
2017-02-24T02:26:03.643Z,0
2017-02-24T02:26:44.219Z,0
2017-02-24T02:27:24.794Z,0
2017-02-24T02:28:05.360Z,0
2017-02-24T02:28:45.930Z,0
2017-02-24T02:29:26.498Z,0
2017-02-24T02:30:07.080Z,0
2017-02-24T02:30:47.662Z,0
2017-02-24T02:31:28.213Z,0
2017-02-24T02:32:08.832Z,0
2017-02-24T02:32:49.429Z,0
2017-02-24T02:33:29.989Z,0
2017-02-24T02:34:10.559Z,0
2017-02-24T02:34:51.141Z,0
2017-02-24T02:35:31.751Z,0
2017-02-24T02:36:12.338Z,0
2017-02-24T02:36:52.910Z,0
2017-02-24T02:37:33.485Z,0
2017-02-24T02:38:14.062Z,0
2017-02-24T02:38:54.655Z,0
2017-02-24T02:39:35.256Z,0
2017-02-24T02:40:15.850Z,0
2017-02-24T02:40:56.431Z,0
2017-02-24T02:41:37.004Z,0
2017-02-24T02:42:17.614Z,0
2017-02-24T02:42:58.193Z,0
2017-02-24T02:43:38.755Z,0
2017-02-24T02:44:19.323Z,0
2017-02-24T02:44:59.917Z,0
2017-02-24T02:45:40.533Z,0
2017-02-24T02:46:21.111Z,0
2017-02-24T02:47:01.708Z,0
2017-02-24T02:47:42.265Z,0
2017-02-24T02:48:22.818Z,0
2017-02-24T02:49:03.376Z,0
2017-02-24T02:49:43.976Z,0
2017-02-24T02:50:24.561Z,0
2017-02-24T02:51:05.130Z,0
2017-02-24T02:51:45.736Z,0
2017-02-24T02:52:26.334Z,0
2017-02-24T02:53:06.934Z,0
2017-02-24T02:53:47.557Z,0
2017-02-24T02:54:28.103Z,0
2017-02-24T02:55:08.678Z,0
2017-02-24T02:55:49.280Z,0
2017-02-24T02:56:29.849Z,0
2017-02-24T02:57:10.442Z,0
2017-02-24T02:57:51.024Z,0
2017-02-24T02:58:31.631Z,0
2017-02-24T02:59:12.208Z,0
2017-02-24T02:59:52.797Z,0
2017-02-24T03:00:33.362Z,0
2017-02-24T03:01:13.937Z,0
2017-02-24T03:01:54.517Z,0
2017-02-24T03:02:35.090Z,0
2017-02-24T03:03:15.669Z,0
2017-02-24T03:03:56.239Z,0
2017-02-24T03:04:36.807Z,0
2017-02-24T03:05:17.388Z,0
2017-02-24T03:05:57.961Z,0
2017-02-24T03:06:38.520Z,0
2017-02-24T03:07:19.100Z,0
2017-02-24T03:07:59.712Z,0
2017-02-24T03:08:40.264Z,0
2017-02-24T03:09:20.854Z,0
2017-02-24T03:10:01.451Z,0
2017-02-24T03:10:42.019Z,0
2017-02-24T03:11:22.596Z,0
2017-02-24T03:12:03.150Z,0
2017-02-24T03:12:43.739Z,0
2017-02-24T03:13:24.310Z,0
2017-02-24T03:14:04.870Z,0
2017-02-24T03:14:45.458Z,0
2017-02-24T03:15:26.041Z,0
2017-02-24T03:16:06.667Z,0
2017-02-24T03:16:47.246Z,0
2017-02-24T03:17:27.818Z,0
2017-02-24T03:18:08.374Z,0
2017-02-24T03:18:48.944Z,0
2017-02-24T03:19:29.505Z,0
2017-02-24T03:20:10.086Z,0
2017-02-24T03:20:50.677Z,0
2017-02-24T03:21:31.318Z,0
2017-02-24T03:22:11.903Z,0
2017-02-24T03:22:52.481Z,0
2017-02-24T03:23:33.055Z,0
2017-02-24T03:24:13.619Z,0
2017-02-24T03:24:54.244Z,0
2017-02-24T03:25:34.828Z,0
2017-02-24T03:26:15.399Z,0
2017-02-24T03:26:55.996Z,0
2017-02-24T03:27:36.622Z,0
2017-02-24T03:28:17.190Z,0
2017-02-24T03:28:57.774Z,0
2017-02-24T03:29:38.387Z,0
2017-02-24T03:30:18.974Z,0
2017-02-24T03:30:59.552Z,0
2017-02-24T03:31:40.141Z,0
2017-02-24T03:32:20.705Z,0
2017-02-24T03:33:01.287Z,0
2017-02-24T03:33:41.856Z,0
2017-02-24T03:34:23.213Z,0
2017-02-24T03:35:03.811Z,0
2017-02-24T03:35:44.433Z,0
2017-02-24T03:36:24.973Z,0
2017-02-24T03:37:05.558Z,0
2017-02-24T03:37:46.161Z,0
2017-02-24T03:38:26.742Z,0
2017-02-24T03:39:07.387Z,0
2017-02-24T03:39:47.989Z,0
2017-02-24T03:40:28.575Z,0
2017-02-24T03:41:09.176Z,0
2017-02-24T03:41:49.760Z,0
2017-02-24T03:42:30.325Z,0
2017-02-24T03:43:10.923Z,0
2017-02-24T03:43:51.519Z,0
2017-02-24T03:44:32.086Z,0
2017-02-24T03:45:12.704Z,0
2017-02-24T03:45:53.282Z,0
2017-02-24T03:46:33.845Z,0
2017-02-24T03:47:14.437Z,0
2017-02-24T03:47:54.987Z,0
2017-02-24T03:48:35.554Z,0
2017-02-24T03:49:16.138Z,0
2017-02-24T03:49:56.709Z,0
2017-02-24T03:50:37.295Z,0
2017-02-24T03:51:17.884Z,0
2017-02-24T03:51:58.453Z,0
2017-02-24T03:52:39.035Z,0
2017-02-24T03:53:19.613Z,0
2017-02-24T03:54:00.193Z,0
2017-02-24T03:54:40.775Z,0
2017-02-24T03:55:21.403Z,0
2017-02-24T03:56:02.009Z,0
2017-02-24T03:56:42.597Z,0
2017-02-24T03:57:23.196Z,0
2017-02-24T03:58:03.772Z,0
2017-02-24T03:58:44.327Z,0
2017-02-24T03:59:24.907Z,0
2017-02-24T04:00:05.482Z,0
2017-02-24T04:00:46.094Z,0
2017-02-24T04:01:26.691Z,0
2017-02-24T04:02:07.274Z,0
2017-02-24T04:02:47.853Z,0
2017-02-24T04:03:28.440Z,0
2017-02-24T04:04:09.024Z,0
2017-02-24T04:04:49.602Z,0
2017-02-24T04:05:30.191Z,0
2017-02-24T04:06:10.771Z,0
2017-02-24T04:06:51.360Z,0
2017-02-24T04:07:31.948Z,0
2017-02-24T04:08:12.512Z,0
2017-02-24T04:08:53.111Z,0
2017-02-24T04:09:33.654Z,0
2017-02-24T04:10:14.230Z,0
2017-02-24T04:10:54.799Z,0
2017-02-24T04:11:35.386Z,0
2017-02-24T04:12:15.971Z,0
2017-02-24T04:12:56.557Z,0
2017-02-24T04:13:37.128Z,0
2017-02-24T04:14:17.706Z,0
2017-02-24T04:14:58.267Z,0
2017-02-24T04:15:38.848Z,0
2017-02-24T04:16:19.429Z,0
2017-02-24T04:17:00.034Z,0
2017-02-24T04:17:40.605Z,0
2017-02-24T04:18:21.383Z,0
2017-02-24T04:19:01.978Z,0
2017-02-24T04:19:42.570Z,0
2017-02-24T04:20:23.193Z,0
2017-02-24T04:21:03.799Z,0
2017-02-24T04:21:44.370Z,0
2017-02-24T04:22:24.941Z,0
2017-02-24T04:23:05.524Z,0
2017-02-24T04:23:46.114Z,0
2017-02-24T04:24:26.689Z,0
2017-02-24T04:25:07.272Z,0
2017-02-24T04:25:47.847Z,0
2017-02-24T04:26:28.438Z,0
2017-02-24T04:27:09.009Z,0
2017-02-24T04:27:49.576Z,0
2017-02-24T04:28:30.180Z,0
2017-02-24T04:29:10.808Z,0
2017-02-24T04:29:51.383Z,0
2017-02-24T04:30:31.954Z,0
2017-02-24T04:31:12.560Z,0
2017-02-24T04:31:53.132Z,0
2017-02-24T04:32:33.780Z,0
2017-02-24T04:33:14.343Z,0
2017-02-24T04:33:54.942Z,0
2017-02-24T04:34:35.517Z,0
2017-02-24T04:35:16.100Z,0
2017-02-24T04:35:56.676Z,0
2017-02-24T04:36:37.240Z,0
2017-02-24T04:37:17.823Z,0
2017-02-24T04:37:58.442Z,0
2017-02-24T04:38:39.048Z,0
2017-02-24T04:39:19.637Z,0
2017-02-24T04:40:00.221Z,0
2017-02-24T04:40:40.811Z,0
2017-02-24T04:41:21.416Z,0
2017-02-24T04:42:01.981Z,0
2017-02-24T04:42:42.554Z,0
2017-02-24T04:43:23.131Z,0
2017-02-24T04:44:03.717Z,0
2017-02-24T04:44:44.277Z,0
2017-02-24T04:45:24.860Z,0
2017-02-24T04:46:05.461Z,0
2017-02-24T04:46:46.038Z,0
2017-02-24T04:47:26.648Z,0
2017-02-24T04:48:07.221Z,0
2017-02-24T04:48:47.830Z,0
2017-02-24T04:49:28.392Z,0
2017-02-24T04:50:08.950Z,0
2017-02-24T04:50:49.580Z,0
2017-02-24T04:51:30.157Z,0
2017-02-24T04:52:10.761Z,0
2017-02-24T04:52:51.361Z,0
2017-02-24T04:53:31.960Z,0
2017-02-24T04:54:12.554Z,0
2017-02-24T04:54:53.130Z,0
2017-02-24T04:55:33.723Z,0
2017-02-24T04:56:14.313Z,0
2017-02-24T04:56:54.892Z,0
2017-02-24T04:57:35.463Z,0
2017-02-24T04:58:16.050Z,0
2017-02-24T04:58:56.614Z,0
2017-02-24T04:59:37.223Z,0
2017-02-24T05:00:17.815Z,0
2017-02-24T05:00:58.396Z,0
2017-02-24T05:01:38.985Z,0
2017-02-24T05:02:19.581Z,0
2017-02-24T05:03:00.190Z,0
2017-02-24T05:03:40.761Z,0
2017-02-24T05:04:21.386Z,0
2017-02-24T05:05:01.965Z,0
2017-02-24T05:05:42.558Z,0
2017-02-24T05:06:23.148Z,0
2017-02-24T05:07:03.743Z,0
2017-02-24T05:07:44.340Z,0
2017-02-24T05:08:24.943Z,0
2017-02-24T05:09:05.523Z,0
2017-02-24T05:09:46.102Z,0
2017-02-24T05:10:26.686Z,0
2017-02-24T05:11:07.242Z,0
2017-02-24T05:11:47.828Z,0
2017-02-24T05:12:28.409Z,0
2017-02-24T05:13:09.057Z,0
2017-02-24T05:13:49.642Z,0
2017-02-24T05:14:30.216Z,0
2017-02-24T05:15:10.786Z,0
2017-02-24T05:15:51.343Z,0
2017-02-24T05:16:31.940Z,0
2017-02-24T05:17:12.513Z,0
2017-02-24T05:17:53.084Z,0
2017-02-24T05:18:33.661Z,0
2017-02-24T05:19:14.230Z,0
2017-02-24T05:19:54.805Z,0
2017-02-24T05:20:35.371Z,0
2017-02-24T05:21:15.956Z,0
2017-02-24T05:21:56.544Z,0
2017-02-24T05:22:37.121Z,0
2017-02-24T05:23:17.691Z,0
2017-02-24T05:23:58.266Z,0
2017-02-24T05:24:38.867Z,0
2017-02-24T05:25:19.512Z,0
2017-02-24T05:26:00.079Z,0
2017-02-24T05:26:40.691Z,0
2017-02-24T05:27:21.281Z,0
2017-02-24T05:28:01.892Z,0
2017-02-24T05:28:42.472Z,0
2017-02-24T05:29:23.041Z,0
2017-02-24T05:30:03.616Z,0
2017-02-24T05:30:44.198Z,0
2017-02-24T05:31:24.781Z,0
2017-02-24T05:32:05.391Z,0
2017-02-24T05:32:45.999Z,0
2017-02-24T05:33:26.592Z,0
2017-02-24T05:34:07.165Z,0
2017-02-24T05:34:47.791Z,0
2017-02-24T05:35:28.405Z,0
2017-02-24T05:36:08.975Z,0
2017-02-24T05:36:49.549Z,0
2017-02-24T05:37:30.174Z,0
2017-02-24T05:38:10.753Z,0
2017-02-24T05:38:51.312Z,0
2017-02-24T05:39:31.893Z,0
2017-02-24T05:40:12.487Z,0
2017-02-24T05:40:53.066Z,0
2017-02-24T05:41:33.645Z,0
2017-02-24T05:42:14.214Z,0
2017-02-24T05:42:54.816Z,0
2017-02-24T05:43:35.423Z,0
2017-02-24T05:44:15.995Z,0
2017-02-24T05:44:56.566Z,4
2017-02-24T05:45:37.147Z,4
2017-02-24T05:46:17.716Z,0
2017-02-24T05:46:58.296Z,0
2017-02-24T05:47:38.919Z,4
2017-02-24T05:48:19.518Z,4
2017-02-24T05:49:00.098Z,4
2017-02-24T05:49:40.683Z,4
2017-02-24T05:50:21.254Z,4
2017-02-24T05:51:01.830Z,4
2017-02-24T05:51:42.401Z,4
2017-02-24T05:52:23.017Z,4
2017-02-24T05:53:03.605Z,4
2017-02-24T05:53:44.182Z,8
2017-02-24T05:54:24.769Z,8
2017-02-24T05:55:05.333Z,4
2017-02-24T05:55:45.908Z,8
2017-02-24T05:56:26.477Z,8
2017-02-24T05:57:07.058Z,8
2017-02-24T05:57:47.645Z,12
2017-02-24T05:58:28.220Z,12
2017-02-24T05:59:08.792Z,12
2017-02-24T05:59:49.380Z,12
2017-02-24T06:00:29.964Z,16
2017-02-24T06:01:10.536Z,20
2017-02-24T06:01:51.096Z,16
2017-02-24T06:02:31.664Z,20
2017-02-24T06:03:12.259Z,20
2017-02-24T06:03:52.836Z,24
2017-02-24T06:04:33.413Z,20
2017-02-24T06:05:13.974Z,24
2017-02-24T06:05:54.541Z,28
2017-02-24T06:06:35.132Z,24
2017-02-24T06:07:15.720Z,28
2017-02-24T06:07:56.307Z,28
2017-02-24T06:08:36.897Z,36
2017-02-24T06:09:17.490Z,36
2017-02-24T06:09:58.088Z,36
2017-02-24T06:10:38.670Z,36
2017-02-24T06:11:19.256Z,44
2017-02-24T06:11:59.862Z,48
2017-02-24T06:12:40.405Z,40
2017-02-24T06:13:21.001Z,40
2017-02-24T06:14:01.576Z,60
2017-02-24T06:14:42.184Z,80
2017-02-24T06:15:22.782Z,92
2017-02-24T06:16:03.390Z,104
2017-02-24T06:16:43.963Z,116
2017-02-24T06:17:24.524Z,132
2017-02-24T06:18:05.101Z,160
2017-02-24T06:18:45.688Z,168
2017-02-24T06:19:26.283Z,176
2017-02-24T06:20:06.932Z,200
2017-02-24T06:20:47.567Z,200
2017-02-24T06:21:28.193Z,224
2017-02-24T06:22:08.791Z,240
2017-02-24T06:22:49.386Z,256
2017-02-24T06:23:29.985Z,244
2017-02-24T06:24:10.570Z,280
2017-02-24T06:24:51.147Z,280
2017-02-24T06:25:31.799Z,300
2017-02-24T06:26:12.382Z,280
2017-02-24T06:26:52.974Z,264
2017-02-24T06:27:33.548Z,304
2017-02-24T06:28:14.112Z,272
2017-02-24T06:28:54.724Z,272
2017-02-24T06:29:35.293Z,284
2017-02-24T06:30:15.866Z,296
2017-02-24T06:30:56.480Z,320
2017-02-24T06:31:37.050Z,316
2017-02-24T06:32:17.618Z,284
2017-02-24T06:32:58.206Z,252
2017-02-24T06:33:38.781Z,260
2017-02-24T06:34:19.371Z,248
2017-02-24T06:34:59.961Z,252
2017-02-24T06:35:40.548Z,240
2017-02-24T06:36:21.152Z,240
2017-02-24T06:37:01.720Z,212
2017-02-24T06:37:42.303Z,204
2017-02-24T06:38:22.878Z,196
2017-02-24T06:39:03.473Z,188
2017-02-24T06:39:44.107Z,220
2017-02-24T06:40:24.714Z,248
2017-02-24T06:41:05.287Z,248
2017-02-24T06:41:45.863Z,236
2017-02-24T06:42:26.434Z,236
2017-02-24T06:43:07.006Z,240
2017-02-24T06:43:47.574Z,220
2017-02-24T06:44:28.135Z,236
2017-02-24T06:45:08.720Z,196
2017-02-24T06:45:49.284Z,184
2017-02-24T06:46:29.854Z,184
2017-02-24T06:47:10.411Z,196
2017-02-24T06:47:51.002Z,192
2017-02-24T06:48:31.565Z,212
2017-02-24T06:49:12.155Z,216
2017-02-24T06:49:52.740Z,224
2017-02-24T06:50:33.305Z,224
2017-02-24T06:51:13.877Z,220
2017-02-24T06:51:54.451Z,244
2017-02-24T06:52:35.018Z,256
2017-02-24T06:53:15.583Z,244
2017-02-24T06:53:56.358Z,240
2017-02-24T06:54:36.962Z,240
2017-02-24T06:55:17.557Z,228
2017-02-24T06:55:58.289Z,248
2017-02-24T06:56:38.815Z,272
2017-02-24T06:57:19.485Z,260
2017-02-24T06:58:00.093Z,256
2017-02-24T06:58:40.844Z,276
2017-02-24T06:59:21.417Z,236
2017-02-24T07:00:02.019Z,244
2017-02-24T07:00:42.606Z,244
2017-02-24T07:01:23.219Z,280
2017-02-24T07:02:03.796Z,280
2017-02-24T07:02:44.383Z,316
2017-02-24T07:03:24.990Z,316
2017-02-24T07:04:05.542Z,272
2017-02-24T07:04:46.116Z,280
2017-02-24T07:05:26.704Z,280
2017-02-24T07:06:07.300Z,300
2017-02-24T07:06:47.889Z,276
2017-02-24T07:07:28.446Z,292
2017-02-24T07:08:09.007Z,292
2017-02-24T07:08:49.578Z,336
2017-02-24T07:09:30.174Z,316
2017-02-24T07:10:10.778Z,324
2017-02-24T07:10:51.379Z,312
2017-02-24T07:11:31.918Z,288
2017-02-24T07:12:12.501Z,284
2017-02-24T07:12:53.085Z,328
2017-02-24T07:13:33.696Z,396
2017-02-24T07:14:14.264Z,312
2017-02-24T07:14:54.830Z,296
2017-02-24T07:15:35.407Z,304
2017-02-24T07:16:15.974Z,308
2017-02-24T07:16:56.558Z,304
2017-02-24T07:17:37.143Z,316
2017-02-24T07:18:17.709Z,284
2017-02-24T07:18:58.309Z,268
2017-02-24T07:19:38.877Z,264
2017-02-24T07:20:19.435Z,300
2017-02-24T07:20:59.996Z,292
2017-02-24T07:21:40.563Z,300
2017-02-24T07:22:21.167Z,296
2017-02-24T07:23:01.716Z,272
2017-02-24T07:23:42.302Z,284
2017-02-24T07:24:22.898Z,284
2017-02-24T07:25:03.515Z,324
2017-02-24T07:25:44.099Z,404
2017-02-24T07:26:24.680Z,496
2017-02-24T07:27:05.255Z,404
2017-02-24T07:27:45.850Z,356
2017-02-24T07:28:26.428Z,360
2017-02-24T07:29:06.997Z,408
2017-02-24T07:29:47.559Z,380
2017-02-24T07:30:28.124Z,364
2017-02-24T07:31:08.734Z,288
2017-02-24T07:31:49.326Z,276
2017-02-24T07:32:29.925Z,300
2017-02-24T07:33:10.819Z,392
2017-02-24T07:33:52.701Z,500
2017-02-24T07:34:33.375Z,740
2017-02-24T07:35:13.951Z,728
2017-02-24T07:35:54.520Z,820
2017-02-24T07:36:35.212Z,848
2017-02-24T07:37:15.786Z,960
2017-02-24T07:37:56.372Z,1176
2017-02-24T07:38:37.016Z,1208
2017-02-24T07:39:17.626Z,1144
2017-02-24T07:39:58.197Z,1084
2017-02-24T07:40:38.788Z,928
2017-02-24T07:41:19.379Z,1052
2017-02-24T07:41:59.952Z,1240
2017-02-24T07:42:40.540Z,1332
2017-02-24T07:43:21.128Z,1324
2017-02-24T07:44:01.742Z,1500
2017-02-24T07:44:42.329Z,1276
2017-02-24T07:45:22.996Z,1400
2017-02-24T07:46:03.565Z,1652
2017-02-24T07:46:44.185Z,1780
2017-02-24T07:47:24.759Z,1828
2017-02-24T07:48:05.326Z,1756
2017-02-24T07:48:45.884Z,1696
2017-02-24T07:49:26.536Z,1608
2017-02-24T07:50:07.152Z,1556
2017-02-24T07:50:47.707Z,1424
2017-02-24T07:51:28.298Z,1560
2017-02-24T07:52:08.958Z,1548
2017-02-24T07:52:49.581Z,1572
2017-02-24T07:53:30.279Z,1636
2017-02-24T07:54:11.332Z,1812
2017-02-24T07:54:51.915Z,1872
2017-02-24T07:55:32.496Z,1692
2017-02-24T07:56:13.082Z,2144
2017-02-24T07:56:53.698Z,2248
2017-02-24T07:57:34.290Z,2220
2017-02-24T07:58:14.875Z,2144
2017-02-24T07:58:55.487Z,2144
2017-02-24T07:59:36.079Z,2020
2017-02-24T08:00:16.675Z,2420
2017-02-24T08:00:57.493Z,1964
2017-02-24T08:01:38.075Z,2404
2017-02-24T08:02:19.022Z,3004
2017-02-24T08:03:00.183Z,3308
2017-02-24T08:03:42.486Z,4624
2017-02-24T08:04:23.677Z,5720
2017-02-24T08:05:04.446Z,3468
2017-02-24T08:05:45.347Z,3204
2017-02-24T08:06:26.237Z,3376
2017-02-24T08:07:07.054Z,3304
2017-02-24T08:07:47.870Z,3144
2017-02-24T08:08:28.670Z,3028
2017-02-24T08:09:09.439Z,2688
2017-02-24T08:09:50.193Z,2484
2017-02-24T08:10:31.197Z,2060
2017-02-24T08:11:12.010Z,1760
2017-02-24T08:11:52.876Z,2092
2017-02-24T08:12:33.520Z,2572
2017-02-24T08:13:14.231Z,2808
2017-02-24T08:13:55.083Z,2872
2017-02-24T08:14:35.973Z,3376
2017-02-24T08:15:16.753Z,3508
2017-02-24T08:15:57.611Z,3516
2017-02-24T08:16:38.279Z,3820
2017-02-24T08:17:19.076Z,3872
2017-02-24T08:17:59.794Z,3396
2017-02-24T08:18:40.560Z,3444
2017-02-24T08:19:21.396Z,2980
2017-02-24T08:20:02.134Z,2840
2017-02-24T08:20:42.899Z,2632
2017-02-24T08:21:23.499Z,2292
2017-02-24T08:22:04.345Z,1956
2017-02-24T08:22:45.279Z,1588
2017-02-24T08:23:26.069Z,1316
2017-02-24T08:24:06.970Z,1184
2017-02-24T08:24:47.707Z,928
2017-02-24T08:25:28.535Z,756
2017-02-24T08:26:09.296Z,560
2017-02-24T08:26:50.091Z,464
2017-02-24T08:27:30.913Z,448
2017-02-24T08:28:11.594Z,484
2017-02-24T08:28:52.303Z,432
2017-02-24T08:29:33.062Z,336
2017-02-24T08:30:13.905Z,300
2017-02-24T08:30:54.613Z,332
2017-02-24T08:31:35.181Z,324
2017-02-24T08:32:15.849Z,340
2017-02-24T08:32:56.675Z,344
2017-02-24T08:33:37.438Z,468
2017-02-24T08:34:18.104Z,808
2017-02-24T08:34:58.759Z,1316
2017-02-24T08:35:39.535Z,1676
2017-02-24T08:36:20.190Z,1808
2017-02-24T08:37:00.763Z,1932
2017-02-24T08:37:41.476Z,1952
2017-02-24T08:38:22.087Z,1948
2017-02-24T08:39:02.918Z,1936
2017-02-24T08:39:43.597Z,1932
2017-02-24T08:40:24.177Z,1872
2017-02-24T08:41:04.754Z,1700
2017-02-24T08:41:45.314Z,1544
2017-02-24T08:42:25.897Z,1588
2017-02-24T08:43:06.508Z,1568
2017-02-24T08:43:47.091Z,1520
2017-02-24T08:44:27.646Z,1568
2017-02-24T08:45:08.202Z,1672
2017-02-24T08:45:48.774Z,1672
2017-02-24T08:46:29.344Z,1612
2017-02-24T08:47:09.920Z,1528
2017-02-24T08:47:50.527Z,1604
2017-02-24T08:48:31.082Z,1492
2017-02-24T08:49:11.667Z,1416
2017-02-24T08:49:52.248Z,1500
2017-02-24T08:50:32.814Z,1480
2017-02-24T08:51:13.415Z,1436
2017-02-24T08:51:53.972Z,1528
2017-02-24T08:52:34.579Z,1508
2017-02-24T08:53:15.198Z,1548
2017-02-24T08:53:55.805Z,1500
2017-02-24T08:54:36.374Z,1376
2017-02-24T08:55:16.943Z,1192
2017-02-24T08:55:57.519Z,1112
2017-02-24T08:56:38.101Z,1072
2017-02-24T08:57:18.816Z,1160
2017-02-24T08:57:59.281Z,1144
2017-02-24T08:58:39.839Z,1344
2017-02-24T08:59:20.572Z,1304
2017-02-24T09:00:01.146Z,1268
2017-02-24T09:00:41.756Z,1232
2017-02-24T09:01:22.316Z,1240
2017-02-24T09:02:02.894Z,1456
2017-02-24T09:02:43.467Z,1508
2017-02-24T09:03:24.061Z,1448
2017-02-24T09:04:04.637Z,1532
2017-02-24T09:04:45.249Z,1764
2017-02-24T09:05:25.807Z,1868
2017-02-24T09:06:06.385Z,1892
2017-02-24T09:06:46.960Z,1832
2017-02-24T09:07:27.550Z,1808
2017-02-24T09:08:08.123Z,1944
2017-02-24T09:08:48.698Z,2132
2017-02-24T09:09:29.295Z,2072
2017-02-24T09:10:09.902Z,1972
2017-02-24T09:10:50.499Z,2056
2017-02-24T09:11:31.094Z,1992
2017-02-24T09:12:11.662Z,1868
2017-02-24T09:12:52.266Z,1888
2017-02-24T09:13:32.907Z,1912
2017-02-24T09:14:13.482Z,1932
2017-02-24T09:14:54.099Z,1832
2017-02-24T09:15:34.697Z,1944
2017-02-24T09:16:15.255Z,1892
2017-02-24T09:16:55.870Z,2024
2017-02-24T09:17:36.458Z,1964
2017-02-24T09:18:17.043Z,1748
2017-02-24T09:18:57.615Z,1400
2017-02-24T09:19:38.185Z,1264
2017-02-24T09:20:18.799Z,1264
2017-02-24T09:20:59.400Z,1308
2017-02-24T09:21:40.002Z,1312
2017-02-24T09:22:20.603Z,1376
2017-02-24T09:23:01.189Z,1464
2017-02-24T09:23:41.774Z,1404
2017-02-24T09:24:22.358Z,1552
2017-02-24T09:25:02.953Z,1536
2017-02-24T09:25:43.557Z,1512
2017-02-24T09:26:24.147Z,1448
2017-02-24T09:27:04.755Z,1636
2017-02-24T09:27:45.359Z,1736
2017-02-24T09:28:25.973Z,1832
2017-02-24T09:29:06.569Z,1936
2017-02-24T09:29:47.195Z,1964
2017-02-24T09:30:27.819Z,1908
2017-02-24T09:31:08.447Z,1844
2017-02-24T09:31:49.027Z,1832
2017-02-24T09:32:29.622Z,1900
2017-02-24T09:33:10.195Z,1948
2017-02-24T09:33:50.802Z,1960
2017-02-24T09:34:31.390Z,1972
2017-02-24T09:35:11.979Z,1980
2017-02-24T09:35:52.577Z,1996
2017-02-24T09:36:33.220Z,2028
2017-02-24T09:37:13.799Z,1980
2017-02-24T09:37:54.390Z,2016
2017-02-24T09:38:35.001Z,2080
2017-02-24T09:39:15.586Z,2136
2017-02-24T09:39:56.184Z,2172
2017-02-24T09:40:36.814Z,2196